sensor_id;sensor_type;location;lat;lon;timestamp;pressure;altitude;pressure_sealevel;temperature;humidity
72438;BME280;60444;43.534;-5.674;2023-03-18T00:01:08;101074.97;;;13.57;100.00
72438;BME280;60444;43.534;-5.674;2023-03-18T00:03:35;101065.69;;;13.46;100.00
72438;BME280;60444;43.534;-5.674;2023-03-18T00:06:12;101066.66;;;13.61;100.00
72438;BME280;60444;43.534;-5.674;2023-03-18T00:08:40;101077.16;;;13.67;100.00
72438;BME280;60444;43.534;-5.674;2023-03-18T00:11:07;101074.34;;;13.52;100.00
72438;BME280;60444;43.534;-5.674;2023-03-18T00:13:34;101085.78;;;13.59;100.00
72438;BME280;60444;43.534;-5.674;2023-03-18T00:16:00;101083.13;;;13.57;100.00
72438;BME280;60444;43.534;-5.674;2023-03-18T00:18:27;101063.91;;;13.45;100.00
72438;BME280;60444;43.534;-5.674;2023-03-18T00:20:53;101075.06;;;13.56;100.00
72438;BME280;60444;43.534;-5.674;2023-03-18T00:23:19;101088.41;;;13.61;100.00
72438;BME280;60444;43.534;-5.674;2023-03-18T00:25:46;101072.78;;;13.64;100.00
72438;BME280;60444;43.534;-5.674;2023-03-18T00:28:13;101081.13;;;13.61;100.00
72438;BME280;60444;43.534;-5.674;2023-03-18T00:30:39;101068.47;;;13.60;100.00
72438;BME280;60444;43.534;-5.674;2023-03-18T00:33:06;101054.19;;;13.57;100.00
72438;BME280;60444;43.534;-5.674;2023-03-18T00:35:32;101079.63;;;13.71;100.00
72438;BME280;60444;43.534;-5.674;2023-03-18T00:37:58;101072.34;;;13.72;100.00
72438;BME280;60444;43.534;-5.674;2023-03-18T00:40:24;101073.59;;;13.66;100.00
72438;BME280;60444;43.534;-5.674;2023-03-18T00:43:10;101074.09;;;13.73;100.00
72438;BME280;60444;43.534;-5.674;2023-03-18T00:45:38;101054.47;;;13.68;100.00
72438;BME280;60444;43.534;-5.674;2023-03-18T00:48:07;101082.16;;;13.74;100.00
72438;BME280;60444;43.534;-5.674;2023-03-18T00:50:35;101068.41;;;13.77;100.00
72438;BME280;60444;43.534;-5.674;2023-03-18T00:53:02;101063.81;;;13.78;100.00
72438;BME280;60444;43.534;-5.674;2023-03-18T00:55:28;101075.59;;;13.78;100.00
72438;BME280;60444;43.534;-5.674;2023-03-18T00:57:53;101064.53;;;13.81;100.00
72438;BME280;60444;43.534;-5.674;2023-03-18T01:00:19;101063.22;;;13.73;100.00
72438;BME280;60444;43.534;-5.674;2023-03-18T01:02:45;101053.75;;;13.80;100.00
72438;BME280;60444;43.534;-5.674;2023-03-18T01:05:14;101053.75;;;13.80;100.00
72438;BME280;60444;43.534;-5.674;2023-03-18T01:07:41;101071.63;;;13.84;100.00
72438;BME280;60444;43.534;-5.674;2023-03-18T01:10:09;101064.38;;;13.84;100.00
72438;BME280;60444;43.534;-5.674;2023-03-18T01:12:35;101061.66;;;13.84;100.00
72438;BME280;60444;43.534;-5.674;2023-03-18T01:15:01;101053.59;;;13.83;96.27
72438;BME280;60444;43.534;-5.674;2023-03-18T01:17:29;101059.63;;;13.88;96.22
72438;BME280;60444;43.534;-5.674;2023-03-18T01:19:54;101059.06;;;13.97;100.00
72438;BME280;60444;43.534;-5.674;2023-03-18T01:22:20;101048.56;;;13.91;100.00
72438;BME280;60444;43.534;-5.674;2023-03-18T01:24:45;101029.56;;;13.75;100.00
72438;BME280;60444;43.534;-5.674;2023-03-18T01:27:11;101043.09;;;13.91;100.00
72438;BME280;60444;43.534;-5.674;2023-03-18T01:29:36;101038.03;;;13.85;98.81
72438;BME280;60444;43.534;-5.674;2023-03-18T01:32:02;101035.25;;;13.86;100.00
72438;BME280;60444;43.534;-5.674;2023-03-18T01:34:28;101028.41;;;13.79;100.00
72438;BME280;60444;43.534;-5.674;2023-03-18T01:36:55;101040.69;;;13.86;100.00
72438;BME280;60444;43.534;-5.674;2023-03-18T01:39:22;101042.59;;;13.84;100.00
72438;BME280;60444;43.534;-5.674;2023-03-18T01:41:51;101045.47;;;13.81;100.00
72438;BME280;60444;43.534;-5.674;2023-03-18T01:44:19;101047.44;;;13.79;93.60
72438;BME280;60444;43.534;-5.674;2023-03-18T01:46:47;101033.50;;;13.70;95.28
72438;BME280;60444;43.534;-5.674;2023-03-18T01:49:36;101045.88;;;13.75;99.05
72438;BME280;60444;43.534;-5.674;2023-03-18T01:52:16;101038.75;;;13.73;98.20
72438;BME280;60444;43.534;-5.674;2023-03-18T01:54:49;101033.84;;;13.64;99.10
72438;BME280;60444;43.534;-5.674;2023-03-18T01:57:17;101050.25;;;13.62;98.05
72438;BME280;60444;43.534;-5.674;2023-03-18T01:59:47;101054.00;;;13.60;98.53
72438;BME280;60444;43.534;-5.674;2023-03-18T02:02:16;101036.66;;;13.62;100.00
72438;BME280;60444;43.534;-5.674;2023-03-18T02:04:45;101039.72;;;13.56;100.00
72438;BME280;60444;43.534;-5.674;2023-03-18T02:07:31;101034.47;;;13.53;99.94
72438;BME280;60444;43.534;-5.674;2023-03-18T02:10:00;101031.84;;;13.51;100.00
72438;BME280;60444;43.534;-5.674;2023-03-18T02:12:32;101040.69;;;13.55;100.00
72438;BME280;60444;43.534;-5.674;2023-03-18T02:15:00;101031.06;;;13.49;100.00
72438;BME280;60444;43.534;-5.674;2023-03-18T02:17:30;101032.78;;;13.50;100.00
72438;BME280;60444;43.534;-5.674;2023-03-18T02:23:37;101027.56;;;13.47;100.00
72438;BME280;60444;43.534;-5.674;2023-03-18T02:28:49;101024.72;;;13.49;100.00
72438;BME280;60444;43.534;-5.674;2023-03-18T02:31:16;101034.72;;;13.48;100.00
72438;BME280;60444;43.534;-5.674;2023-03-18T02:33:43;101001.34;;;13.31;100.00
72438;BME280;60444;43.534;-5.674;2023-03-18T02:36:17;101035.34;;;13.53;100.00
72438;BME280;60444;43.534;-5.674;2023-03-18T02:38:45;101050.88;;;13.51;100.00
72438;BME280;60444;43.534;-5.674;2023-03-18T02:41:14;101019.03;;;13.38;100.00
72438;BME280;60444;43.534;-5.674;2023-03-18T02:43:39;101018.78;;;13.42;100.00
72438;BME280;60444;43.534;-5.674;2023-03-18T02:49:01;101034.03;;;13.45;100.00
72438;BME280;60444;43.534;-5.674;2023-03-18T02:51:27;101048.78;;;13.41;100.00
72438;BME280;60444;43.534;-5.674;2023-03-18T02:54:00;101045.41;;;13.36;100.00
72438;BME280;60444;43.534;-5.674;2023-03-18T02:56:28;101050.31;;;13.45;100.00
72438;BME280;60444;43.534;-5.674;2023-03-18T02:58:53;101041.41;;;13.43;100.00
72438;BME280;60444;43.534;-5.674;2023-03-18T03:01:19;101044.72;;;13.32;100.00
72438;BME280;60444;43.534;-5.674;2023-03-18T03:03:46;101063.50;;;13.37;100.00
72438;BME280;60444;43.534;-5.674;2023-03-18T03:06:12;101047.38;;;13.34;100.00
72438;BME280;60444;43.534;-5.674;2023-03-18T03:08:38;101055.06;;;13.41;100.00
72438;BME280;60444;43.534;-5.674;2023-03-18T03:11:04;101053.94;;;13.30;100.00
72438;BME280;60444;43.534;-5.674;2023-03-18T03:13:30;101064.72;;;13.31;100.00
72438;BME280;60444;43.534;-5.674;2023-03-18T03:15:56;101062.09;;;13.30;100.00
72438;BME280;60444;43.534;-5.674;2023-03-18T03:18:21;101054.44;;;13.36;100.00
72438;BME280;60444;43.534;-5.674;2023-03-18T03:20:49;101046.81;;;13.27;100.00
72438;BME280;60444;43.534;-5.674;2023-03-18T03:23:15;101042.78;;;13.34;100.00
72438;BME280;60444;43.534;-5.674;2023-03-18T03:25:41;101039.75;;;13.25;100.00
72438;BME280;60444;43.534;-5.674;2023-03-18T03:28:11;101030.00;;;13.21;100.00
72438;BME280;60444;43.534;-5.674;2023-03-18T03:30:38;101044.91;;;13.29;100.00
72438;BME280;60444;43.534;-5.674;2023-03-18T03:33:06;101023.69;;;13.20;100.00
72438;BME280;60444;43.534;-5.674;2023-03-18T03:35:32;101034.31;;;13.25;100.00
72438;BME280;60444;43.534;-5.674;2023-03-18T03:37:58;101025.47;;;13.21;100.00
72438;BME280;60444;43.534;-5.674;2023-03-18T03:40:24;101029.72;;;13.25;100.00
72438;BME280;60444;43.534;-5.674;2023-03-18T03:42:50;101036.84;;;13.28;100.00
72438;BME280;60444;43.534;-5.674;2023-03-18T03:45:17;101029.63;;;13.27;100.00
72438;BME280;60444;43.534;-5.674;2023-03-18T03:47:44;101034.03;;;13.29;100.00
72438;BME280;60444;43.534;-5.674;2023-03-18T03:50:11;101036.84;;;13.28;100.00
72438;BME280;60444;43.534;-5.674;2023-03-18T03:52:37;101042.38;;;13.26;100.00
72438;BME280;60444;43.534;-5.674;2023-03-18T03:55:05;101046.91;;;13.26;100.00
72438;BME280;60444;43.534;-5.674;2023-03-18T03:57:32;101047.72;;;13.28;100.00
72438;BME280;60444;43.534;-5.674;2023-03-18T03:59:57;101047.72;;;13.28;100.00
72438;BME280;60444;43.534;-5.674;2023-03-18T04:02:23;101035.25;;;13.24;100.00
72438;BME280;60444;43.534;-5.674;2023-03-18T04:04:51;101045.94;;;13.27;100.00
72438;BME280;60444;43.534;-5.674;2023-03-18T04:07:16;101033.75;;;13.18;100.00
72438;BME280;60444;43.534;-5.674;2023-03-18T04:09:42;101048.31;;;13.33;100.00
72438;BME280;60444;43.534;-5.674;2023-03-18T04:12:08;101050.25;;;13.31;100.00
72438;BME280;60444;43.534;-5.674;2023-03-18T04:14:34;101027.72;;;13.13;100.00
72438;BME280;60444;43.534;-5.674;2023-03-18T04:16:59;101034.81;;;13.16;100.00
72438;BME280;60444;43.534;-5.674;2023-03-18T04:19:25;101058.56;;;13.28;100.00
72438;BME280;60444;43.534;-5.674;2023-03-18T04:21:52;101047.25;;;13.20;100.00
72438;BME280;60444;43.534;-5.674;2023-03-18T04:24:21;101063.72;;;13.32;100.00
72438;BME280;60444;43.534;-5.674;2023-03-18T04:26:47;101072.94;;;13.30;100.00
72438;BME280;60444;43.534;-5.674;2023-03-18T04:29:13;101078.38;;;13.30;100.00
72438;BME280;60444;43.534;-5.674;2023-03-18T04:31:39;101082.59;;;13.35;100.00
72438;BME280;60444;43.534;-5.674;2023-03-18T04:34:04;101075.56;;;13.31;100.00
72438;BME280;60444;43.534;-5.674;2023-03-18T04:36:30;101079.09;;;13.33;100.00
72438;BME280;60444;43.534;-5.674;2023-03-18T04:38:56;101054.25;;;13.24;100.00
72438;BME280;60444;43.534;-5.674;2023-03-18T04:41:22;101083.44;;;13.36;100.00
72438;BME280;60444;43.534;-5.674;2023-03-18T04:43:47;101080.72;;;13.36;100.00
72438;BME280;60444;43.534;-5.674;2023-03-18T04:46:13;101069.25;;;13.31;100.00
72438;BME280;60444;43.534;-5.674;2023-03-18T04:48:40;101080.03;;;13.32;100.00
72438;BME280;60444;43.534;-5.674;2023-03-18T04:51:06;101067.25;;;13.34;100.00
72438;BME280;60444;43.534;-5.674;2023-03-18T04:53:35;101061.09;;;13.31;100.00
72438;BME280;60444;43.534;-5.674;2023-03-18T04:56:01;101076.38;;;13.33;100.00
72438;BME280;60444;43.534;-5.674;2023-03-18T04:58:28;101053.22;;;13.26;100.00
72438;BME280;60444;43.534;-5.674;2023-03-18T05:00:53;101063.91;;;13.29;100.00
72438;BME280;60444;43.534;-5.674;2023-03-18T05:03:19;101083.63;;;13.33;100.00
72438;BME280;60444;43.534;-5.674;2023-03-18T05:05:45;101081.91;;;13.32;100.00
72438;BME280;60444;43.534;-5.674;2023-03-18T05:08:11;101075.47;;;13.33;100.00
72438;BME280;60444;43.534;-5.674;2023-03-18T05:10:37;101074.53;;;13.34;100.00
72438;BME280;60444;43.534;-5.674;2023-03-18T05:13:05;101086.34;;;13.33;100.00
72438;BME280;60444;43.534;-5.674;2023-03-18T05:15:31;101091.38;;;13.40;100.00
72438;BME280;60444;43.534;-5.674;2023-03-18T05:17:56;101095.91;;;13.40;100.00
72438;BME280;60444;43.534;-5.674;2023-03-18T05:20:22;101098.09;;;13.33;100.00
72438;BME280;60444;43.534;-5.674;2023-03-18T05:22:47;101090.84;;;13.34;100.00
72438;BME280;60444;43.534;-5.674;2023-03-18T05:25:13;101093.47;;;13.35;100.00
72438;BME280;60444;43.534;-5.674;2023-03-18T05:27:39;101098.72;;;13.38;100.00
72438;BME280;60444;43.534;-5.674;2023-03-18T05:30:06;101108.19;;;13.47;100.00
72438;BME280;60444;43.534;-5.674;2023-03-18T05:32:32;101118.03;;;13.49;100.00
72438;BME280;60444;43.534;-5.674;2023-03-18T05:34:57;101118.03;;;13.49;100.00
72438;BME280;60444;43.534;-5.674;2023-03-18T05:37:23;101113.81;;;13.44;100.00
72438;BME280;60444;43.534;-5.674;2023-03-18T05:39:49;101099.13;;;13.31;100.00
72438;BME280;60444;43.534;-5.674;2023-03-18T05:42:15;101100.91;;;13.32;100.00
72438;BME280;60444;43.534;-5.674;2023-03-18T05:44:41;101125.38;;;13.47;100.00
72438;BME280;60444;43.534;-5.674;2023-03-18T05:47:09;101123.88;;;13.42;100.00
72438;BME280;60444;43.534;-5.674;2023-03-18T05:49:35;101140.66;;;13.50;100.00
72438;BME280;60444;43.534;-5.674;2023-03-18T05:52:01;101128.19;;;13.46;100.00
72438;BME280;60444;43.534;-5.674;2023-03-18T05:54:27;101130.28;;;13.41;100.00
72438;BME280;60444;43.534;-5.674;2023-03-18T05:56:53;101138.72;;;13.52;100.00
72438;BME280;60444;43.534;-5.674;2023-03-18T05:59:20;101139.59;;;13.52;100.00
72438;BME280;60444;43.534;-5.674;2023-03-18T06:01:46;101131.34;;;13.54;100.00
72438;BME280;60444;43.534;-5.674;2023-03-18T06:04:13;101145.63;;;13.57;100.00
72438;BME280;60444;43.534;-5.674;2023-03-18T06:06:41;101138.72;;;13.52;100.00
72438;BME280;60444;43.534;-5.674;2023-03-18T06:09:08;101151.88;;;13.60;100.00
72438;BME280;60444;43.534;-5.674;2023-03-18T06:11:35;101148.63;;;13.53;100.00
72438;BME280;60444;43.534;-5.674;2023-03-18T06:14:02;101128.38;;;13.43;100.00
72438;BME280;60444;43.534;-5.674;2023-03-18T06:16:29;101144.22;;;13.50;100.00
72438;BME280;60444;43.534;-5.674;2023-03-18T06:18:55;101149.41;;;13.55;100.00
72438;BME280;60444;43.534;-5.674;2023-03-18T06:21:21;101151.34;;;13.53;100.00
72438;BME280;60444;43.534;-5.674;2023-03-18T06:23:47;101160.47;;;13.52;100.00
72438;BME280;60444;43.534;-5.674;2023-03-18T06:26:14;101155.03;;;13.52;100.00
72438;BME280;60444;43.534;-5.674;2023-03-18T06:28:40;101153.06;;;13.54;100.00
72438;BME280;60444;43.534;-5.674;2023-03-18T06:31:05;101155.28;;;13.47;100.00
72438;BME280;60444;43.534;-5.674;2023-03-18T06:33:35;101165.63;;;13.57;100.00
72438;BME280;60444;43.534;-5.674;2023-03-18T06:36:01;101167.66;;;13.53;100.00
72438;BME280;60444;43.534;-5.674;2023-03-18T06:38:27;101168.53;;;13.53;100.00
72438;BME280;60444;43.534;-5.674;2023-03-18T06:40:53;101170.97;;;13.58;100.00
72438;BME280;60444;43.534;-5.674;2023-03-18T06:43:19;101168.44;;;13.55;100.00
72438;BME280;60444;43.534;-5.674;2023-03-18T06:45:45;101178.00;;;13.62;100.00
72438;BME280;60444;43.534;-5.674;2023-03-18T06:48:11;101167.47;;;13.56;100.00
72438;BME280;60444;43.534;-5.674;2023-03-18T06:50:37;101184.44;;;13.61;100.00
72438;BME280;60444;43.534;-5.674;2023-03-18T06:53:05;101198.78;;;13.63;100.00
72438;BME280;60444;43.534;-5.674;2023-03-18T06:55:30;101200.56;;;13.64;100.00
72438;BME280;60444;43.534;-5.674;2023-03-18T06:57:57;101196.16;;;13.62;100.00
72438;BME280;60444;43.534;-5.674;2023-03-18T07:00:23;101212.94;;;13.70;100.00
72438;BME280;60444;43.534;-5.674;2023-03-18T07:02:50;101209.13;;;13.72;100.00
72438;BME280;60444;43.534;-5.674;2023-03-18T07:05:17;101204.50;;;13.74;100.00
72438;BME280;60444;43.534;-5.674;2023-03-18T07:07:43;101197.84;;;13.64;100.00
72438;BME280;60444;43.534;-5.674;2023-03-18T07:10:14;101212.31;;;13.80;100.00
72438;BME280;60444;43.534;-5.674;2023-03-18T07:12:41;101225.22;;;13.77;100.00
72438;BME280;60444;43.534;-5.674;2023-03-18T07:15:07;101224.41;;;13.75;100.00
72438;BME280;60444;43.534;-5.674;2023-03-18T07:17:33;101227.75;;;13.80;100.00
72438;BME280;60444;43.534;-5.674;2023-03-18T07:19:58;101218.66;;;13.81;100.00
72438;BME280;60444;43.534;-5.674;2023-03-18T07:22:24;101230.38;;;13.81;100.00
72438;BME280;60444;43.534;-5.674;2023-03-18T07:24:49;101232.16;;;13.82;100.00
72438;BME280;60444;43.534;-5.674;2023-03-18T07:27:16;101234.69;;;13.85;100.00
72438;BME280;60444;43.534;-5.674;2023-03-18T07:29:42;101231.97;;;13.85;100.00
72438;BME280;60444;43.534;-5.674;2023-03-18T07:32:07;101231.28;;;13.82;100.00
72438;BME280;60444;43.534;-5.674;2023-03-18T07:34:34;101245.84;;;13.96;100.00
72438;BME280;60444;43.534;-5.674;2023-03-18T07:37:00;101245.06;;;13.94;100.00
72438;BME280;60444;43.534;-5.674;2023-03-18T07:39:26;101244.88;;;13.97;100.00
72438;BME280;60444;43.534;-5.674;2023-03-18T07:41:52;101248.38;;;13.99;100.00
72438;BME280;60444;43.534;-5.674;2023-03-18T07:44:18;101227.00;;;13.93;100.00
72438;BME280;60444;43.534;-5.674;2023-03-18T07:46:43;101246.47;;;14.01;100.00
72438;BME280;60444;43.534;-5.674;2023-03-18T07:49:09;101256.03;;;14.08;100.00
72438;BME280;60444;43.534;-5.674;2023-03-18T07:51:35;101247.88;;;14.08;100.00
72438;BME280;60444;43.534;-5.674;2023-03-18T07:54:01;101263.78;;;14.16;100.00
72438;BME280;60444;43.534;-5.674;2023-03-18T07:56:28;101264.56;;;14.18;100.00
72438;BME280;60444;43.534;-5.674;2023-03-18T07:58:53;101268.88;;;14.22;100.00
72438;BME280;60444;43.534;-5.674;2023-03-18T08:01:19;101256.31;;;14.19;100.00
72438;BME280;60444;43.534;-5.674;2023-03-18T08:03:45;101269.69;;;14.24;100.00
72438;BME280;60444;43.534;-5.674;2023-03-18T08:06:12;101263.53;;;14.20;100.00
72438;BME280;60444;43.534;-5.674;2023-03-18T08:08:38;101286.38;;;14.33;100.00
72438;BME280;60444;43.534;-5.674;2023-03-18T08:11:05;101286.91;;;14.40;100.00
72438;BME280;60444;43.534;-5.674;2023-03-18T08:13:30;101284.63;;;14.32;100.00
72438;BME280;60444;43.534;-5.674;2023-03-18T08:15:56;101302.34;;;14.39;100.00
72438;BME280;60444;43.534;-5.674;2023-03-18T08:18:22;101296.22;;;14.36;100.00
72438;BME280;60444;43.534;-5.674;2023-03-18T08:20:48;101287.63;;;14.28;100.00
72438;BME280;60444;43.534;-5.674;2023-03-18T08:23:14;101302.69;;;14.33;100.00
72438;BME280;60444;43.534;-5.674;2023-03-18T08:25:40;101307.19;;;14.34;100.00
72438;BME280;60444;43.534;-5.674;2023-03-18T08:28:06;101324.31;;;14.36;100.00
72438;BME280;60444;43.534;-5.674;2023-03-18T08:30:33;101330.78;;;14.34;100.00
72438;BME280;60444;43.534;-5.674;2023-03-18T08:33:00;101329.06;;;14.33;100.00
72438;BME280;60444;43.534;-5.674;2023-03-18T08:35:25;101338.25;;;14.30;100.00
72438;BME280;60444;43.534;-5.674;2023-03-18T08:37:51;101355.06;;;14.38;100.00
72438;BME280;60444;43.534;-5.674;2023-03-18T08:40:16;101360.59;;;14.37;100.00
72438;BME280;60444;43.534;-5.674;2023-03-18T08:42:42;101363.22;;;14.38;100.00
72438;BME280;60444;43.534;-5.674;2023-03-18T08:45:09;101358.91;;;14.34;100.00
72438;BME280;60444;43.534;-5.674;2023-03-18T08:47:36;101363.03;;;14.41;100.00
72438;BME280;60444;43.534;-5.674;2023-03-18T08:50:03;101357.78;;;14.38;100.00
72438;BME280;60444;43.534;-5.674;2023-03-18T08:52:30;101356.69;;;14.41;100.00
72438;BME280;60444;43.534;-5.674;2023-03-18T08:54:56;101359.28;;;14.44;100.00
72438;BME280;60444;43.534;-5.674;2023-03-18T08:57:22;101339.75;;;14.36;100.00
72438;BME280;60444;43.534;-5.674;2023-03-18T08:59:49;101359.00;;;14.48;100.00
72438;BME280;60444;43.534;-5.674;2023-03-18T09:02:15;101374.91;;;14.56;100.00
72438;BME280;60444;43.534;-5.674;2023-03-18T09:04:41;101370.34;;;14.57;100.00
72438;BME280;60444;43.534;-5.674;2023-03-18T09:07:08;101367.63;;;14.57;100.00
72438;BME280;60444;43.534;-5.674;2023-03-18T09:09:33;101378.06;;;14.64;100.00
72438;BME280;60444;43.534;-5.674;2023-03-18T09:11:59;101374.09;;;14.70;100.00
72438;BME280;60444;43.534;-5.674;2023-03-18T09:14:25;101377.53;;;14.73;100.00
72438;BME280;60444;43.534;-5.674;2023-03-18T09:16:52;101370.25;;;14.74;100.00
72438;BME280;60444;43.534;-5.674;2023-03-18T09:19:18;101364.28;;;14.83;100.00
72438;BME280;60444;43.534;-5.674;2023-03-18T09:21:43;101379.19;;;14.91;100.00
72438;BME280;60444;43.534;-5.674;2023-03-18T09:24:09;101393.00;;;15.04;100.00
72438;BME280;60444;43.534;-5.674;2023-03-18T09:26:35;101389.22;;;15.06;100.00
72438;BME280;60444;43.534;-5.674;2023-03-18T09:29:02;101397.91;;;15.13;100.00
72438;BME280;60444;43.534;-5.674;2023-03-18T09:31:28;101405.84;;;15.17;100.00
72438;BME280;60444;43.534;-5.674;2023-03-18T09:33:55;101405.47;;;15.23;100.00
72438;BME280;60444;43.534;-5.674;2023-03-18T09:36:21;101402.22;;;15.17;100.00
72438;BME280;60444;43.534;-5.674;2023-03-18T09:38:47;101411.63;;;15.27;100.00
72438;BME280;60444;43.534;-5.674;2023-03-18T09:49:25;101424.63;;;15.37;100.00
72438;BME280;60444;43.534;-5.674;2023-03-18T09:52:21;101431.81;;;15.38;100.00
72438;BME280;60444;43.534;-5.674;2023-03-18T09:57:53;101438.97;;;15.41;100.00
72438;BME280;60444;43.534;-5.674;2023-03-18T10:00:35;101416.28;;;15.40;100.00
72438;BME280;60444;43.534;-5.674;2023-03-18T10:05:54;101419.94;;;15.55;100.00
72438;BME280;60444;43.534;-5.674;2023-03-18T10:11:11;101418.66;;;15.76;100.00
72438;BME280;60444;43.534;-5.674;2023-03-18T10:13:43;101415.75;;;15.79;100.00
72438;BME280;60444;43.534;-5.674;2023-03-18T10:16:16;101406.34;;;15.69;100.00
72438;BME280;60444;43.534;-5.674;2023-03-18T10:18:44;101426.00;;;15.90;100.00
72438;BME280;60444;43.534;-5.674;2023-03-18T10:21:51;101420.66;;;15.88;100.00
72438;BME280;60444;43.534;-5.674;2023-03-18T10:24:38;101434.19;;;15.90;100.00
72438;BME280;60444;43.534;-5.674;2023-03-18T10:27:25;101428.53;;;15.93;100.00
72438;BME280;60444;43.534;-5.674;2023-03-18T10:30:11;101442.09;;;15.94;100.00
72438;BME280;60444;43.534;-5.674;2023-03-18T10:35:33;101447.16;;;15.86;100.00
72438;BME280;60444;43.534;-5.674;2023-03-18T10:38:17;101463.72;;;15.83;100.00
72438;BME280;60444;43.534;-5.674;2023-03-18T10:40:45;101473.19;;;15.76;100.00
72438;BME280;60444;43.534;-5.674;2023-03-18T10:43:17;101470.66;;;15.73;100.00
72438;BME280;60444;43.534;-5.674;2023-03-18T10:45:45;101473.84;;;15.66;100.00
72438;BME280;60444;43.534;-5.674;2023-03-18T10:48:26;101489.41;;;15.64;100.00
72438;BME280;60444;43.534;-5.674;2023-03-18T10:51:08;101471.50;;;15.60;100.00
72438;BME280;60444;43.534;-5.674;2023-03-18T10:54:01;101486.97;;;15.59;100.00
72438;BME280;60444;43.534;-5.674;2023-03-18T10:56:33;101471.16;;;15.50;100.00
72438;BME280;60444;43.534;-5.674;2023-03-18T10:59:00;101491.44;;;15.60;100.00
72438;BME280;60444;43.534;-5.674;2023-03-18T11:01:27;101494.09;;;15.62;100.00
72438;BME280;60444;43.534;-5.674;2023-03-18T11:03:58;101509.06;;;15.70;100.00
72438;BME280;60444;43.534;-5.674;2023-03-18T11:06:35;101507.19;;;15.71;100.00
72438;BME280;60444;43.534;-5.674;2023-03-18T11:09:11;101512.03;;;15.66;100.00
72438;BME280;60444;43.534;-5.674;2023-03-18T11:11:45;101519.25;;;15.67;100.00
72438;BME280;60444;43.534;-5.674;2023-03-18T11:14:15;101522.09;;;15.65;100.00
72438;BME280;60444;43.534;-5.674;2023-03-18T11:19:31;101528.31;;;15.67;100.00
72438;BME280;60444;43.534;-5.674;2023-03-18T11:24:29;101534.75;;;15.66;100.00
72438;BME280;60444;43.534;-5.674;2023-03-18T11:27:21;101539.16;;;15.69;100.00
72438;BME280;60444;43.534;-5.674;2023-03-18T11:29:57;101541.94;;;15.67;100.00
72438;BME280;60444;43.534;-5.674;2023-03-18T11:32:25;101553.31;;;15.75;100.00
72438;BME280;60444;43.534;-5.674;2023-03-18T11:34:57;101541.34;;;15.62;100.00
72438;BME280;60444;43.534;-5.674;2023-03-18T11:37:32;101555.06;;;15.61;100.00
72438;BME280;60444;43.534;-5.674;2023-03-18T11:40:15;101552.63;;;15.56;100.00
72438;BME280;60444;43.534;-5.674;2023-03-18T11:42:45;101561.75;;;15.55;100.00
72438;BME280;60444;43.534;-5.674;2023-03-18T11:47:52;101557.72;;;15.46;100.00
72438;BME280;60444;43.534;-5.674;2023-03-18T11:50:23;101560.53;;;15.45;100.00
72438;BME280;60444;43.534;-5.674;2023-03-18T12:01:12;101584.00;;;15.47;100.00
72438;BME280;60444;43.534;-5.674;2023-03-18T12:09:36;101576.47;;;15.20;100.00
72438;BME280;60444;43.534;-5.674;2023-03-18T12:12:21;101558.25;;;15.05;100.00
72438;BME280;60444;43.534;-5.674;2023-03-18T12:15:55;101576.72;;;15.15;100.00
72438;BME280;60444;43.534;-5.674;2023-03-18T12:18:17;101579.63;;;15.12;100.00
72438;BME280;60444;43.534;-5.674;2023-03-18T12:20:50;101581.13;;;15.18;100.00
72438;BME280;60444;43.534;-5.674;2023-03-18T12:26:08;101577.09;;;15.25;100.00
72438;BME280;60444;43.534;-5.674;2023-03-18T12:28:51;101567.94;;;15.26;100.00
72438;BME280;60444;43.534;-5.674;2023-03-18T12:33:58;101588.22;;;15.53;100.00
72438;BME280;60444;43.534;-5.674;2023-03-18T12:39:36;101606.34;;;15.70;100.00
72438;BME280;60444;43.534;-5.674;2023-03-18T12:42:24;101588.06;;;15.72;100.00
72438;BME280;60444;43.534;-5.674;2023-03-18T12:44:58;101608.31;;;15.83;100.00
72438;BME280;60444;43.534;-5.674;2023-03-18T12:50:11;101598.00;;;15.88;100.00
72438;BME280;60444;43.534;-5.674;2023-03-18T12:52:58;101595.28;;;15.88;100.00
72438;BME280;60444;43.534;-5.674;2023-03-18T12:55:32;101618.84;;;16.05;100.00
72438;BME280;60444;43.534;-5.674;2023-03-18T12:58:20;101613.72;;;16.14;100.00
72438;BME280;60444;43.534;-5.674;2023-03-18T13:01:08;101615.63;;;16.12;100.00
72438;BME280;60444;43.534;-5.674;2023-03-18T13:03:48;101612.84;;;16.14;100.00
72438;BME280;60444;43.534;-5.674;2023-03-18T13:06:48;101617.03;;;16.19;100.00
72438;BME280;60444;43.534;-5.674;2023-03-18T13:12:09;101627.09;;;16.19;100.00
72438;BME280;60444;43.534;-5.674;2023-03-18T13:15:04;101619.34;;;16.11;100.00
72438;BME280;60444;43.534;-5.674;2023-03-18T13:17:39;101624.31;;;16.05;100.00
72438;BME280;60444;43.534;-5.674;2023-03-18T13:20:20;101587.09;;;15.88;100.00
72438;BME280;60444;43.534;-5.674;2023-03-18T13:31:16;101628.84;;;16.20;100.00
72438;BME280;60444;43.534;-5.674;2023-03-18T13:44:43;101617.47;;;16.27;100.00
72438;BME280;60444;43.534;-5.674;2023-03-18T13:47:22;101624.88;;;16.25;100.00
72438;BME280;60444;43.534;-5.674;2023-03-18T13:49:48;101630.53;;;16.22;100.00
72438;BME280;60444;43.534;-5.674;2023-03-18T13:52:39;101621.78;;;16.16;100.00
72438;BME280;60444;43.534;-5.674;2023-03-18T13:55:39;101621.63;;;16.19;100.00
72438;BME280;60444;43.534;-5.674;2023-03-18T13:58:26;101617.94;;;16.20;100.00
72438;BME280;60444;43.534;-5.674;2023-03-18T14:14:02;101625.00;;;16.08;100.00
72438;BME280;60444;43.534;-5.674;2023-03-18T14:16:47;101616.44;;;16.14;100.00
72438;BME280;60444;43.534;-5.674;2023-03-18T14:21:50;101641.38;;;16.08;100.00